sensor_id;sensor_type;location;lat;lon;timestamp;temperature;humidity
16301;DHT22;8258;51.020;4.248;2023-02-23T00:00:31;8.80;99.90
16301;DHT22;8258;51.020;4.248;2023-02-23T00:02:59;8.80;99.90
16301;DHT22;8258;51.020;4.248;2023-02-23T00:05:28;8.90;99.90
16301;DHT22;8258;51.020;4.248;2023-02-23T00:07:56;8.90;99.90
16301;DHT22;8258;51.020;4.248;2023-02-23T00:10:23;8.80;99.90
16301;DHT22;8258;51.020;4.248;2023-02-23T00:12:56;8.80;99.90
16301;DHT22;8258;51.020;4.248;2023-02-23T00:15:24;8.80;99.90
16301;DHT22;8258;51.020;4.248;2023-02-23T00:17:52;8.90;99.90
16301;DHT22;8258;51.020;4.248;2023-02-23T00:20:20;8.80;99.90
16301;DHT22;8258;51.020;4.248;2023-02-23T00:22:53;8.80;99.90
16301;DHT22;8258;51.020;4.248;2023-02-23T00:25:21;8.80;99.90
16301;DHT22;8258;51.020;4.248;2023-02-23T00:27:48;8.80;99.90
16301;DHT22;8258;51.020;4.248;2023-02-23T00:30:19;8.80;99.90
16301;DHT22;8258;51.020;4.248;2023-02-23T00:32:46;8.80;99.90
16301;DHT22;8258;51.020;4.248;2023-02-23T00:35:14;8.70;99.90
16301;DHT22;8258;51.020;4.248;2023-02-23T00:37:44;8.70;99.90
16301;DHT22;8258;51.020;4.248;2023-02-23T00:40:12;8.70;99.90
16301;DHT22;8258;51.020;4.248;2023-02-23T00:42:42;8.70;99.90
16301;DHT22;8258;51.020;4.248;2023-02-23T00:45:10;8.70;99.90
16301;DHT22;8258;51.020;4.248;2023-02-23T00:47:45;8.70;99.90
16301;DHT22;8258;51.020;4.248;2023-02-23T00:50:15;8.70;99.90
16301;DHT22;8258;51.020;4.248;2023-02-23T00:52:43;8.70;99.90
16301;DHT22;8258;51.020;4.248;2023-02-23T00:55:12;8.60;99.90
16301;DHT22;8258;51.020;4.248;2023-02-23T00:57:39;8.70;99.90
16301;DHT22;8258;51.020;4.248;2023-02-23T01:00:09;8.70;99.90
16301;DHT22;8258;51.020;4.248;2023-02-23T01:02:47;8.60;99.90
16301;DHT22;8258;51.020;4.248;2023-02-23T01:05:15;8.60;99.90
16301;DHT22;8258;51.020;4.248;2023-02-23T01:07:42;8.60;99.90
16301;DHT22;8258;51.020;4.248;2023-02-23T01:10:11;8.70;99.90
16301;DHT22;8258;51.020;4.248;2023-02-23T01:12:49;8.70;99.90
16301;DHT22;8258;51.020;4.248;2023-02-23T01:15:17;8.70;99.90
16301;DHT22;8258;51.020;4.248;2023-02-23T01:17:46;8.60;99.90
16301;DHT22;8258;51.020;4.248;2023-02-23T01:20:15;8.60;99.90
16301;DHT22;8258;51.020;4.248;2023-02-23T01:22:44;8.60;99.90
16301;DHT22;8258;51.020;4.248;2023-02-23T01:25:12;8.60;99.90
16301;DHT22;8258;51.020;4.248;2023-02-23T01:27:39;8.50;99.90
16301;DHT22;8258;51.020;4.248;2023-02-23T01:30:07;8.50;99.90
16301;DHT22;8258;51.020;4.248;2023-02-23T01:32:35;8.40;99.90
16301;DHT22;8258;51.020;4.248;2023-02-23T01:35:11;8.40;99.90
16301;DHT22;8258;51.020;4.248;2023-02-23T01:37:40;8.50;99.90
16301;DHT22;8258;51.020;4.248;2023-02-23T01:40:11;8.50;99.90
16301;DHT22;8258;51.020;4.248;2023-02-23T01:42:41;8.50;99.90
16301;DHT22;8258;51.020;4.248;2023-02-23T01:45:24;8.50;99.90
16301;DHT22;8258;51.020;4.248;2023-02-23T01:47:54;8.50;99.90
16301;DHT22;8258;51.020;4.248;2023-02-23T01:50:24;8.40;99.90
16301;DHT22;8258;51.020;4.248;2023-02-23T01:52:52;8.50;99.90
16301;DHT22;8258;51.020;4.248;2023-02-23T01:55:22;8.40;99.90
16301;DHT22;8258;51.020;4.248;2023-02-23T01:57:57;8.40;99.90
16301;DHT22;8258;51.020;4.248;2023-02-23T02:00:25;8.30;99.90
16301;DHT22;8258;51.020;4.248;2023-02-23T02:02:52;8.30;99.90
16301;DHT22;8258;51.020;4.248;2023-02-23T02:05:20;8.40;99.90
16301;DHT22;8258;51.020;4.248;2023-02-23T02:07:50;8.40;99.90
16301;DHT22;8258;51.020;4.248;2023-02-23T02:10:25;8.40;99.90
16301;DHT22;8258;51.020;4.248;2023-02-23T02:13:14;8.30;99.90
16301;DHT22;8258;51.020;4.248;2023-02-23T02:16:18;8.30;99.90
16301;DHT22;8258;51.020;4.248;2023-02-23T02:19:13;8.30;99.90
16301;DHT22;8258;51.020;4.248;2023-02-23T02:22:16;8.30;99.90
16301;DHT22;8258;51.020;4.248;2023-02-23T02:28:38;8.30;99.90
16301;DHT22;8258;51.020;4.248;2023-02-23T02:31:36;8.30;99.90
16301;DHT22;8258;51.020;4.248;2023-02-23T02:40:08;8.40;99.90
16301;DHT22;8258;51.020;4.248;2023-02-23T02:42:57;8.40;99.90
16301;DHT22;8258;51.020;4.248;2023-02-23T02:45:29;8.40;99.90
16301;DHT22;8258;51.020;4.248;2023-02-23T02:48:01;8.30;99.90
16301;DHT22;8258;51.020;4.248;2023-02-23T02:50:39;8.30;99.90
16301;DHT22;8258;51.020;4.248;2023-02-23T02:53:10;8.20;99.90
16301;DHT22;8258;51.020;4.248;2023-02-23T02:55:39;8.30;99.90
16301;DHT22;8258;51.020;4.248;2023-02-23T02:58:10;8.10;99.90
16301;DHT22;8258;51.020;4.248;2023-02-23T03:00:40;8.20;99.90
16301;DHT22;8258;51.020;4.248;2023-02-23T03:03:30;8.20;99.90
16301;DHT22;8258;51.020;4.248;2023-02-23T03:06:15;8.20;99.90
16301;DHT22;8258;51.020;4.248;2023-02-23T03:09:07;8.20;99.90
16301;DHT22;8258;51.020;4.248;2023-02-23T03:12:05;8.30;99.90
16301;DHT22;8258;51.020;4.248;2023-02-23T03:14:54;8.30;99.90
16301;DHT22;8258;51.020;4.248;2023-02-23T03:17:45;8.30;99.90
16301;DHT22;8258;51.020;4.248;2023-02-23T03:20:39;8.30;99.90
16301;DHT22;8258;51.020;4.248;2023-02-23T03:23:32;8.30;99.90
16301;DHT22;8258;51.020;4.248;2023-02-23T03:26:22;8.40;99.90
16301;DHT22;8258;51.020;4.248;2023-02-23T03:29:11;8.40;99.90
16301;DHT22;8258;51.020;4.248;2023-02-23T03:32:02;8.50;99.90
16301;DHT22;8258;51.020;4.248;2023-02-23T03:34:53;8.50;99.90
16301;DHT22;8258;51.020;4.248;2023-02-23T03:37:41;8.50;99.90
16301;DHT22;8258;51.020;4.248;2023-02-23T03:40:32;8.40;99.90
16301;DHT22;8258;51.020;4.248;2023-02-23T03:43:24;8.30;99.90
16301;DHT22;8258;51.020;4.248;2023-02-23T03:46:11;8.30;99.90
16301;DHT22;8258;51.020;4.248;2023-02-23T03:48:58;8.20;99.90
16301;DHT22;8258;51.020;4.248;2023-02-23T03:51:47;8.20;99.90
16301;DHT22;8258;51.020;4.248;2023-02-23T03:54:36;8.10;99.90
16301;DHT22;8258;51.020;4.248;2023-02-23T03:57:24;8.10;99.90
16301;DHT22;8258;51.020;4.248;2023-02-23T04:00:16;8.10;99.90
16301;DHT22;8258;51.020;4.248;2023-02-23T04:03:04;8.10;99.90
16301;DHT22;8258;51.020;4.248;2023-02-23T04:05:52;8.10;99.90
16301;DHT22;8258;51.020;4.248;2023-02-23T04:08:37;8.20;99.90
16301;DHT22;8258;51.020;4.248;2023-02-23T04:11:26;8.30;99.90
16301;DHT22;8258;51.020;4.248;2023-02-23T04:14:18;8.30;99.90
16301;DHT22;8258;51.020;4.248;2023-02-23T04:16:48;8.30;99.90
16301;DHT22;8258;51.020;4.248;2023-02-23T04:19:14;8.40;99.90
16301;DHT22;8258;51.020;4.248;2023-02-23T04:21:41;8.30;99.90
16301;DHT22;8258;51.020;4.248;2023-02-23T04:24:09;8.30;99.90
16301;DHT22;8258;51.020;4.248;2023-02-23T04:26:36;8.20;99.90
16301;DHT22;8258;51.020;4.248;2023-02-23T04:29:03;8.20;99.90
16301;DHT22;8258;51.020;4.248;2023-02-23T04:31:30;8.20;99.90
16301;DHT22;8258;51.020;4.248;2023-02-23T04:33:58;8.10;99.90
16301;DHT22;8258;51.020;4.248;2023-02-23T04:36:25;8.00;99.90
16301;DHT22;8258;51.020;4.248;2023-02-23T04:38:52;8.00;99.90
16301;DHT22;8258;51.020;4.248;2023-02-23T04:41:19;8.00;99.90
16301;DHT22;8258;51.020;4.248;2023-02-23T04:43:46;7.90;99.90
16301;DHT22;8258;51.020;4.248;2023-02-23T04:46:13;7.90;99.90
16301;DHT22;8258;51.020;4.248;2023-02-23T04:48:40;8.00;99.90
16301;DHT22;8258;51.020;4.248;2023-02-23T04:51:09;8.00;99.90
16301;DHT22;8258;51.020;4.248;2023-02-23T04:53:37;7.90;99.90
16301;DHT22;8258;51.020;4.248;2023-02-23T04:56:05;7.90;99.90
16301;DHT22;8258;51.020;4.248;2023-02-23T04:58:32;7.90;99.90
16301;DHT22;8258;51.020;4.248;2023-02-23T05:01:04;7.80;99.90
16301;DHT22;8258;51.020;4.248;2023-02-23T05:03:31;7.80;99.90
16301;DHT22;8258;51.020;4.248;2023-02-23T05:05:58;7.90;99.90
16301;DHT22;8258;51.020;4.248;2023-02-23T05:08:27;7.80;99.90
16301;DHT22;8258;51.020;4.248;2023-02-23T05:10:54;7.90;99.90
16301;DHT22;8258;51.020;4.248;2023-02-23T05:13:20;7.80;99.90
16301;DHT22;8258;51.020;4.248;2023-02-23T05:15:47;7.80;99.90
16301;DHT22;8258;51.020;4.248;2023-02-23T05:18:14;7.80;99.90
16301;DHT22;8258;51.020;4.248;2023-02-23T05:20:42;7.80;99.90
16301;DHT22;8258;51.020;4.248;2023-02-23T05:23:10;7.70;99.90
16301;DHT22;8258;51.020;4.248;2023-02-23T05:25:39;7.80;99.90
16301;DHT22;8258;51.020;4.248;2023-02-23T05:28:06;7.80;99.90
16301;DHT22;8258;51.020;4.248;2023-02-23T05:30:32;7.70;99.90
16301;DHT22;8258;51.020;4.248;2023-02-23T05:33:00;7.80;99.90
16301;DHT22;8258;51.020;4.248;2023-02-23T05:35:27;7.80;99.90
16301;DHT22;8258;51.020;4.248;2023-02-23T05:37:54;7.80;99.90
16301;DHT22;8258;51.020;4.248;2023-02-23T05:40:21;7.80;99.90
16301;DHT22;8258;51.020;4.248;2023-02-23T05:42:50;7.80;99.90
16301;DHT22;8258;51.020;4.248;2023-02-23T05:45:17;7.70;99.90
16301;DHT22;8258;51.020;4.248;2023-02-23T05:47:44;7.70;99.90
16301;DHT22;8258;51.020;4.248;2023-02-23T05:50:11;7.70;99.90
16301;DHT22;8258;51.020;4.248;2023-02-23T05:52:38;7.80;99.90
16301;DHT22;8258;51.020;4.248;2023-02-23T05:55:07;7.80;99.90
16301;DHT22;8258;51.020;4.248;2023-02-23T05:57:36;7.90;99.90
16301;DHT22;8258;51.020;4.248;2023-02-23T06:00:06;7.90;99.90
16301;DHT22;8258;51.020;4.248;2023-02-23T06:02:33;7.90;99.90
16301;DHT22;8258;51.020;4.248;2023-02-23T06:10:11;7.90;99.90
16301;DHT22;8258;51.020;4.248;2023-02-23T06:12:39;7.90;99.90
16301;DHT22;8258;51.020;4.248;2023-02-23T06:15:08;7.90;99.90
16301;DHT22;8258;51.020;4.248;2023-02-23T06:17:35;7.90;99.90
16301;DHT22;8258;51.020;4.248;2023-02-23T06:20:02;7.90;99.90
16301;DHT22;8258;51.020;4.248;2023-02-23T06:22:29;7.90;99.90
16301;DHT22;8258;51.020;4.248;2023-02-23T06:24:56;7.90;99.90
16301;DHT22;8258;51.020;4.248;2023-02-23T06:27:23;7.90;99.90
16301;DHT22;8258;51.020;4.248;2023-02-23T06:29:50;7.80;99.90
16301;DHT22;8258;51.020;4.248;2023-02-23T06:32:18;7.80;99.90
16301;DHT22;8258;51.020;4.248;2023-02-23T06:34:45;7.80;99.90
16301;DHT22;8258;51.020;4.248;2023-02-23T06:37:12;7.80;99.90
16301;DHT22;8258;51.020;4.248;2023-02-23T06:39:46;7.80;99.90
16301;DHT22;8258;51.020;4.248;2023-02-23T06:42:13;7.70;99.90
16301;DHT22;8258;51.020;4.248;2023-02-23T06:44:40;7.70;99.90
16301;DHT22;8258;51.020;4.248;2023-02-23T06:47:07;7.70;99.90
16301;DHT22;8258;51.020;4.248;2023-02-23T06:49:36;7.70;99.90
16301;DHT22;8258;51.020;4.248;2023-02-23T06:52:05;7.70;99.90
16301;DHT22;8258;51.020;4.248;2023-02-23T06:54:32;7.80;99.90
16301;DHT22;8258;51.020;4.248;2023-02-23T06:56:59;7.70;99.90
16301;DHT22;8258;51.020;4.248;2023-02-23T06:59:26;7.70;99.90
16301;DHT22;8258;51.020;4.248;2023-02-23T07:02:01;7.70;99.90
16301;DHT22;8258;51.020;4.248;2023-02-23T07:04:29;7.70;99.90
16301;DHT22;8258;51.020;4.248;2023-02-23T07:06:58;7.70;99.90
16301;DHT22;8258;51.020;4.248;2023-02-23T07:09:25;7.60;99.90
16301;DHT22;8258;51.020;4.248;2023-02-23T07:11:52;7.70;99.90
16301;DHT22;8258;51.020;4.248;2023-02-23T07:14:19;7.80;99.90
16301;DHT22;8258;51.020;4.248;2023-02-23T07:16:46;7.90;99.90
16301;DHT22;8258;51.020;4.248;2023-02-23T07:19:12;8.00;99.90
16301;DHT22;8258;51.020;4.248;2023-02-23T07:21:39;8.10;99.90
16301;DHT22;8258;51.020;4.248;2023-02-23T07:24:08;8.00;99.90
16301;DHT22;8258;51.020;4.248;2023-02-23T07:26:35;8.00;99.90
16301;DHT22;8258;51.020;4.248;2023-02-23T07:29:02;8.10;99.90
16301;DHT22;8258;51.020;4.248;2023-02-23T07:31:29;8.00;99.90
16301;DHT22;8258;51.020;4.248;2023-02-23T07:33:56;8.00;99.90
16301;DHT22;8258;51.020;4.248;2023-02-23T07:36:23;8.10;99.90
16301;DHT22;8258;51.020;4.248;2023-02-23T07:38:51;8.10;99.90
16301;DHT22;8258;51.020;4.248;2023-02-23T07:41:20;8.00;99.90
16301;DHT22;8258;51.020;4.248;2023-02-23T07:43:47;8.00;99.90
16301;DHT22;8258;51.020;4.248;2023-02-23T07:46:13;8.10;99.90
16301;DHT22;8258;51.020;4.248;2023-02-23T07:48:42;8.20;99.90
16301;DHT22;8258;51.020;4.248;2023-02-23T07:51:10;8.20;99.90
16301;DHT22;8258;51.020;4.248;2023-02-23T07:53:38;8.10;99.90
16301;DHT22;8258;51.020;4.248;2023-02-23T07:56:06;8.20;99.90
16301;DHT22;8258;51.020;4.248;2023-02-23T07:58:36;8.20;99.90
16301;DHT22;8258;51.020;4.248;2023-02-23T08:01:04;8.20;99.90
16301;DHT22;8258;51.020;4.248;2023-02-23T08:03:31;8.30;99.90
16301;DHT22;8258;51.020;4.248;2023-02-23T08:05:57;8.30;99.90
16301;DHT22;8258;51.020;4.248;2023-02-23T08:08:25;8.30;99.90
16301;DHT22;8258;51.020;4.248;2023-02-23T08:10:58;8.30;99.90
16301;DHT22;8258;51.020;4.248;2023-02-23T08:13:25;8.30;99.90
16301;DHT22;8258;51.020;4.248;2023-02-23T08:15:54;8.40;99.90
16301;DHT22;8258;51.020;4.248;2023-02-23T08:18:21;8.30;99.90
16301;DHT22;8258;51.020;4.248;2023-02-23T08:20:48;8.30;99.90
16301;DHT22;8258;51.020;4.248;2023-02-23T08:23:15;8.30;99.90
16301;DHT22;8258;51.020;4.248;2023-02-23T08:25:42;8.30;99.90
16301;DHT22;8258;51.020;4.248;2023-02-23T08:28:09;8.30;99.90
16301;DHT22;8258;51.020;4.248;2023-02-23T08:30:36;8.40;99.90
16301;DHT22;8258;51.020;4.248;2023-02-23T08:33:05;8.30;99.90
16301;DHT22;8258;51.020;4.248;2023-02-23T08:35:32;8.30;99.90
16301;DHT22;8258;51.020;4.248;2023-02-23T08:37:59;8.40;99.90
16301;DHT22;8258;51.020;4.248;2023-02-23T08:40:26;8.40;99.90
16301;DHT22;8258;51.020;4.248;2023-02-23T08:42:53;8.40;99.90
16301;DHT22;8258;51.020;4.248;2023-02-23T08:45:20;8.40;99.90
16301;DHT22;8258;51.020;4.248;2023-02-23T08:47:47;8.40;99.90
16301;DHT22;8258;51.020;4.248;2023-02-23T08:50:15;8.30;99.90
16301;DHT22;8258;51.020;4.248;2023-02-23T08:52:42;8.30;99.90
16301;DHT22;8258;51.020;4.248;2023-02-23T08:55:10;8.40;99.90
16301;DHT22;8258;51.020;4.248;2023-02-23T08:57:38;8.30;99.90
16301;DHT22;8258;51.020;4.248;2023-02-23T09:00:06;8.30;99.90
16301;DHT22;8258;51.020;4.248;2023-02-23T09:02:38;8.40;99.90
16301;DHT22;8258;51.020;4.248;2023-02-23T09:05:06;8.50;99.90
16301;DHT22;8258;51.020;4.248;2023-02-23T09:07:36;8.50;99.90
16301;DHT22;8258;51.020;4.248;2023-02-23T09:10:04;8.70;99.90
16301;DHT22;8258;51.020;4.248;2023-02-23T09:12:31;8.70;99.90
16301;DHT22;8258;51.020;4.248;2023-02-23T09:14:58;8.80;99.90
16301;DHT22;8258;51.020;4.248;2023-02-23T09:17:25;8.80;99.90
16301;DHT22;8258;51.020;4.248;2023-02-23T09:19:52;8.80;99.90
16301;DHT22;8258;51.020;4.248;2023-02-23T09:22:19;8.90;99.90
16301;DHT22;8258;51.020;4.248;2023-02-23T09:24:47;8.80;99.90
16301;DHT22;8258;51.020;4.248;2023-02-23T09:27:14;8.90;99.90
16301;DHT22;8258;51.020;4.248;2023-02-23T09:29:41;9.00;99.90
16301;DHT22;8258;51.020;4.248;2023-02-23T09:32:09;9.00;99.90
16301;DHT22;8258;51.020;4.248;2023-02-23T09:34:36;9.10;99.90
16301;DHT22;8258;51.020;4.248;2023-02-23T09:37:04;9.20;99.90
16301;DHT22;8258;51.020;4.248;2023-02-23T09:39:31;9.30;99.90
16301;DHT22;8258;51.020;4.248;2023-02-23T09:42:22;9.30;99.90
16301;DHT22;8258;51.020;4.248;2023-02-23T09:45:01;9.30;99.90
16301;DHT22;8258;51.020;4.248;2023-02-23T09:47:39;9.40;99.90
16301;DHT22;8258;51.020;4.248;2023-02-23T09:50:15;9.50;99.90
16301;DHT22;8258;51.020;4.248;2023-02-23T09:52:45;9.60;99.90
16301;DHT22;8258;51.020;4.248;2023-02-23T09:55:15;9.70;99.90
16301;DHT22;8258;51.020;4.248;2023-02-23T09:57:46;9.90;99.90
16301;DHT22;8258;51.020;4.248;2023-02-23T10:00:17;10.00;99.90
16301;DHT22;8258;51.020;4.248;2023-02-23T10:03:07;10.00;99.90
16301;DHT22;8258;51.020;4.248;2023-02-23T10:05:41;10.00;99.90
16301;DHT22;8258;51.020;4.248;2023-02-23T10:08:18;10.10;99.90
16301;DHT22;8258;51.020;4.248;2023-02-23T10:10:48;10.30;99.90
16301;DHT22;8258;51.020;4.248;2023-02-23T10:13:24;10.40;99.90
16301;DHT22;8258;51.020;4.248;2023-02-23T10:15:58;10.50;99.90
16301;DHT22;8258;51.020;4.248;2023-02-23T10:18:32;10.50;99.90
16301;DHT22;8258;51.020;4.248;2023-02-23T10:21:03;10.50;99.90
16301;DHT22;8258;51.020;4.248;2023-02-23T10:23:33;10.60;99.90
16301;DHT22;8258;51.020;4.248;2023-02-23T10:26:03;10.60;99.90
16301;DHT22;8258;51.020;4.248;2023-02-23T10:28:35;10.80;99.90
16301;DHT22;8258;51.020;4.248;2023-02-23T10:31:19;10.90;99.90
16301;DHT22;8258;51.020;4.248;2023-02-23T10:33:51;10.90;99.90
16301;DHT22;8258;51.020;4.248;2023-02-23T10:36:30;10.90;99.90
16301;DHT22;8258;51.020;4.248;2023-02-23T10:38:58;10.90;99.90
16301;DHT22;8258;51.020;4.248;2023-02-23T10:41:26;10.90;99.90
16301;DHT22;8258;51.020;4.248;2023-02-23T10:43:54;10.80;99.90
16301;DHT22;8258;51.020;4.248;2023-02-23T10:46:23;10.90;99.90
16301;DHT22;8258;51.020;4.248;2023-02-23T10:48:53;11.00;99.90
16301;DHT22;8258;51.020;4.248;2023-02-23T10:51:26;11.10;99.90
16301;DHT22;8258;51.020;4.248;2023-02-23T10:53:54;11.20;99.90
16301;DHT22;8258;51.020;4.248;2023-02-23T10:56:22;11.00;99.90
16301;DHT22;8258;51.020;4.248;2023-02-23T10:58:51;10.80;99.90
16301;DHT22;8258;51.020;4.248;2023-02-23T11:01:33;10.70;99.90
16301;DHT22;8258;51.020;4.248;2023-02-23T11:04:12;10.80;99.90
16301;DHT22;8258;51.020;4.248;2023-02-23T11:06:41;11.00;99.90
16301;DHT22;8258;51.020;4.248;2023-02-23T11:09:24;11.10;99.90
16301;DHT22;8258;51.020;4.248;2023-02-23T11:11:55;11.20;99.90
16301;DHT22;8258;51.020;4.248;2023-02-23T11:14:24;11.20;99.90
16301;DHT22;8258;51.020;4.248;2023-02-23T11:16:54;11.30;99.90
16301;DHT22;8258;51.020;4.248;2023-02-23T11:19:26;11.40;99.90
16301;DHT22;8258;51.020;4.248;2023-02-23T11:21:55;11.50;99.90
16301;DHT22;8258;51.020;4.248;2023-02-23T11:24:24;11.50;99.90
16301;DHT22;8258;51.020;4.248;2023-02-23T11:26:53;11.50;99.90
16301;DHT22;8258;51.020;4.248;2023-02-23T11:29:26;11.60;99.90
16301;DHT22;8258;51.020;4.248;2023-02-23T11:31:57;11.50;99.90
16301;DHT22;8258;51.020;4.248;2023-02-23T11:34:29;11.20;99.90
16301;DHT22;8258;51.020;4.248;2023-02-23T11:37:04;11.20;99.90
16301;DHT22;8258;51.020;4.248;2023-02-23T11:39:32;11.20;99.90
16301;DHT22;8258;51.020;4.248;2023-02-23T11:42:12;11.20;99.90
16301;DHT22;8258;51.020;4.248;2023-02-23T11:44:39;11.00;99.90
16301;DHT22;8258;51.020;4.248;2023-02-23T11:47:16;11.00;99.90
16301;DHT22;8258;51.020;4.248;2023-02-23T11:49:45;11.00;99.90
16301;DHT22;8258;51.020;4.248;2023-02-23T11:52:15;11.00;99.90
16301;DHT22;8258;51.020;4.248;2023-02-23T11:54:53;11.00;99.90
16301;DHT22;8258;51.020;4.248;2023-02-23T11:57:21;11.00;99.90
16301;DHT22;8258;51.020;4.248;2023-02-23T11:59:49;11.10;99.90
16301;DHT22;8258;51.020;4.248;2023-02-23T12:02:22;11.10;99.90
16301;DHT22;8258;51.020;4.248;2023-02-23T12:04:52;11.00;99.90
16301;DHT22;8258;51.020;4.248;2023-02-23T12:07:34;11.00;99.90
16301;DHT22;8258;51.020;4.248;2023-02-23T12:10:15;11.00;99.90
16301;DHT22;8258;51.020;4.248;2023-02-23T12:12:52;10.90;99.90
16301;DHT22;8258;51.020;4.248;2023-02-23T12:15:27;11.10;99.90
16301;DHT22;8258;51.020;4.248;2023-02-23T12:18:02;11.10;99.90
16301;DHT22;8258;51.020;4.248;2023-02-23T12:20:34;11.20;99.90
16301;DHT22;8258;51.020;4.248;2023-02-23T12:23:06;11.30;99.90
16301;DHT22;8258;51.020;4.248;2023-02-23T12:25:38;11.50;99.90
16301;DHT22;8258;51.020;4.248;2023-02-23T12:28:11;11.60;99.90
16301;DHT22;8258;51.020;4.248;2023-02-23T12:30:42;11.50;99.90
16301;DHT22;8258;51.020;4.248;2023-02-23T12:33:16;11.50;99.90
16301;DHT22;8258;51.020;4.248;2023-02-23T12:35:49;11.70;99.90
16301;DHT22;8258;51.020;4.248;2023-02-23T12:38:24;11.70;99.90
16301;DHT22;8258;51.020;4.248;2023-02-23T12:40:58;11.60;99.90
16301;DHT22;8258;51.020;4.248;2023-02-23T12:43:38;11.60;99.90
16301;DHT22;8258;51.020;4.248;2023-02-23T12:46:13;11.70;99.90
16301;DHT22;8258;51.020;4.248;2023-02-23T12:48:51;11.80;99.90
16301;DHT22;8258;51.020;4.248;2023-02-23T12:51:25;12.00;99.90
16301;DHT22;8258;51.020;4.248;2023-02-23T12:53:54;12.00;99.90
16301;DHT22;8258;51.020;4.248;2023-02-23T12:56:34;12.00;99.90
16301;DHT22;8258;51.020;4.248;2023-02-23T12:59:33;12.20;99.90
16301;DHT22;8258;51.020;4.248;2023-02-23T13:02:11;12.20;99.90
16301;DHT22;8258;51.020;4.248;2023-02-23T13:05:02;12.30;99.90
16301;DHT22;8258;51.020;4.248;2023-02-23T13:07:37;12.40;99.90
16301;DHT22;8258;51.020;4.248;2023-02-23T13:10:15;12.20;99.90
16301;DHT22;8258;51.020;4.248;2023-02-23T13:12:54;12.00;99.90
16301;DHT22;8258;51.020;4.248;2023-02-23T13:15:29;12.10;99.90
16301;DHT22;8258;51.020;4.248;2023-02-23T13:18:02;12.10;99.90
16301;DHT22;8258;51.020;4.248;2023-02-23T13:20:36;12.00;99.90
16301;DHT22;8258;51.020;4.248;2023-02-23T13:23:17;12.10;99.90
16301;DHT22;8258;51.020;4.248;2023-02-23T13:25:52;12.00;99.90
16301;DHT22;8258;51.020;4.248;2023-02-23T13:28:33;11.80;99.90
16301;DHT22;8258;51.020;4.248;2023-02-23T13:31:03;11.70;99.90
16301;DHT22;8258;51.020;4.248;2023-02-23T13:33:30;11.70;99.90
16301;DHT22;8258;51.020;4.248;2023-02-23T13:36:02;11.80;99.90
16301;DHT22;8258;51.020;4.248;2023-02-23T13:38:35;11.80;99.90
16301;DHT22;8258;51.020;4.248;2023-02-23T13:41:12;11.70;99.90
16301;DHT22;8258;51.020;4.248;2023-02-23T13:43:47;11.70;99.90
16301;DHT22;8258;51.020;4.248;2023-02-23T13:46:24;11.60;99.90
16301;DHT22;8258;51.020;4.248;2023-02-23T13:48:56;11.50;99.90
16301;DHT22;8258;51.020;4.248;2023-02-23T13:51:32;11.40;99.90
16301;DHT22;8258;51.020;4.248;2023-02-23T13:54:04;11.50;99.90
16301;DHT22;8258;51.020;4.248;2023-02-23T13:56:39;11.60;99.90
16301;DHT22;8258;51.020;4.248;2023-02-23T13:59:14;11.60;99.90
16301;DHT22;8258;51.020;4.248;2023-02-23T14:01:44;12.20;99.90
16301;DHT22;8258;51.020;4.248;2023-02-23T14:04:13;13.60;99.90
16301;DHT22;8258;51.020;4.248;2023-02-23T14:06:52;15.10;99.90
16301;DHT22;8258;51.020;4.248;2023-02-23T14:09:23;16.20;99.90
16301;DHT22;8258;51.020;4.248;2023-02-23T14:12:01;16.80;99.90
16301;DHT22;8258;51.020;4.248;2023-02-23T14:14:39;17.20;99.90
16301;DHT22;8258;51.020;4.248;2023-02-23T14:20:05;18.30;99.90
16301;DHT22;8258;51.020;4.248;2023-02-23T14:23:14;19.20;99.90
16301;DHT22;8258;51.020;4.248;2023-02-23T14:25:49;19.70;99.90
16301;DHT22;8258;51.020;4.248;2023-02-23T14:28:25;19.60;99.90
16301;DHT22;8258;51.020;4.248;2023-02-23T14:31:01;19.10;99.90
16301;DHT22;8258;51.020;4.248;2023-02-23T14:33:36;18.10;99.90
16301;DHT22;8258;51.020;4.248;2023-02-23T14:36:34;16.90;99.90
16301;DHT22;8258;51.020;4.248;2023-02-23T14:39:07;15.80;99.90
16301;DHT22;8258;51.020;4.248;2023-02-23T14:41:40;15.00;99.90
16301;DHT22;8258;51.020;4.248;2023-02-23T14:44:13;14.50;99.90
16301;DHT22;8258;51.020;4.248;2023-02-23T14:46:48;14.30;99.90
16301;DHT22;8258;51.020;4.248;2023-02-23T14:49:19;14.10;99.90
16301;DHT22;8258;51.020;4.248;2023-02-23T14:51:48;14.00;99.90
16301;DHT22;8258;51.020;4.248;2023-02-23T14:54:29;13.80;99.90
16301;DHT22;8258;51.020;4.248;2023-02-23T14:56:58;13.70;99.90
16301;DHT22;8258;51.020;4.248;2023-02-23T14:59:26;14.80;99.90
16301;DHT22;8258;51.020;4.248;2023-02-23T15:01:57;16.10;99.90
16301;DHT22;8258;51.020;4.248;2023-02-23T15:04:26;16.80;99.90
16301;DHT22;8258;51.020;4.248;2023-02-23T15:06:57;17.30;99.90
16301;DHT22;8258;51.020;4.248;2023-02-23T15:09:34;17.60;99.90
16301;DHT22;8258;51.020;4.248;2023-02-23T15:12:11;18.40;99.90
16301;DHT22;8258;51.020;4.248;2023-02-23T15:14:39;18.60;99.90
16301;DHT22;8258;51.020;4.248;2023-02-23T15:17:12;18.40;99.90
16301;DHT22;8258;51.020;4.248;2023-02-23T15:19:40;18.40;99.90
16301;DHT22;8258;51.020;4.248;2023-02-23T15:22:17;16.80;99.90
16301;DHT22;8258;51.020;4.248;2023-02-23T15:24:48;15.40;99.90
16301;DHT22;8258;51.020;4.248;2023-02-23T15:27:17;14.60;99.90
16301;DHT22;8258;51.020;4.248;2023-02-23T15:29:44;13.90;99.90
16301;DHT22;8258;51.020;4.248;2023-02-23T15:32:16;13.70;99.90
16301;DHT22;8258;51.020;4.248;2023-02-23T15:34:44;13.50;99.90
16301;DHT22;8258;51.020;4.248;2023-02-23T15:37:16;13.10;99.90
16301;DHT22;8258;51.020;4.248;2023-02-23T15:39:50;12.80;99.90
16301;DHT22;8258;51.020;4.248;2023-02-23T15:42:22;12.50;99.90
16301;DHT22;8258;51.020;4.248;2023-02-23T15:44:58;12.20;99.90
16301;DHT22;8258;51.020;4.248;2023-02-23T15:47:30;12.10;99.90
16301;DHT22;8258;51.020;4.248;2023-02-23T15:50:12;12.20;99.90
16301;DHT22;8258;51.020;4.248;2023-02-23T15:52:44;12.10;99.90
16301;DHT22;8258;51.020;4.248;2023-02-23T15:55:19;12.00;99.90
16301;DHT22;8258;51.020;4.248;2023-02-23T15:57:53;11.90;99.90
16301;DHT22;8258;51.020;4.248;2023-02-23T16:00:27;11.90;99.90
16301;DHT22;8258;51.020;4.248;2023-02-23T16:02:58;11.70;99.90
16301;DHT22;8258;51.020;4.248;2023-02-23T16:05:29;11.60;99.90
16301;DHT22;8258;51.020;4.248;2023-02-23T16:08:03;11.50;99.90
16301;DHT22;8258;51.020;4.248;2023-02-23T16:10:42;11.60;99.90
16301;DHT22;8258;51.020;4.248;2023-02-23T16:13:13;11.60;99.90
16301;DHT22;8258;51.020;4.248;2023-02-23T16:15:41;11.50;99.90
16301;DHT22;8258;51.020;4.248;2023-02-23T16:18:14;11.60;99.90
16301;DHT22;8258;51.020;4.248;2023-02-23T16:20:48;11.50;99.90
16301;DHT22;8258;51.020;4.248;2023-02-23T16:23:25;11.30;99.90
16301;DHT22;8258;51.020;4.248;2023-02-23T16:25:56;11.20;99.90
16301;DHT22;8258;51.020;4.248;2023-02-23T16:28:28;11.10;99.90
16301;DHT22;8258;51.020;4.248;2023-02-23T16:30:59;11.00;99.90
16301;DHT22;8258;51.020;4.248;2023-02-23T16:33:27;10.90;99.90
16301;DHT22;8258;51.020;4.248;2023-02-23T16:36:11;10.80;99.90
16301;DHT22;8258;51.020;4.248;2023-02-23T16:38:41;10.60;99.90
16301;DHT22;8258;51.020;4.248;2023-02-23T16:41:14;10.50;99.90
16301;DHT22;8258;51.020;4.248;2023-02-23T16:43:44;10.50;99.90
16301;DHT22;8258;51.020;4.248;2023-02-23T16:46:13;10.50;99.90